sensor_id;sensor_type;location;lat;lon;timestamp;temperature;humidity
43009;DHT22;28634;45.454;11.106;2022-10-26T00:01:57;23.10;58.10
43009;DHT22;28634;45.454;11.106;2022-10-26T00:04:24;23.00;58.00
43009;DHT22;28634;45.454;11.106;2022-10-26T00:06:54;23.10;58.00
43009;DHT22;28634;45.454;11.106;2022-10-26T00:09:27;23.00;58.00
43009;DHT22;28634;45.454;11.106;2022-10-26T00:11:54;23.00;58.00
43009;DHT22;28634;45.454;11.106;2022-10-26T00:14:33;23.00;58.10
43009;DHT22;28634;45.454;11.106;2022-10-26T00:17:00;22.90;58.10
43009;DHT22;28634;45.454;11.106;2022-10-26T00:19:28;22.90;58.00
43009;DHT22;28634;45.454;11.106;2022-10-26T00:21:58;22.90;57.90
43009;DHT22;28634;45.454;11.106;2022-10-26T00:24:32;22.90;57.90
43009;DHT22;28634;45.454;11.106;2022-10-26T00:26:59;22.90;57.70
43009;DHT22;28634;45.454;11.106;2022-10-26T00:29:28;22.80;57.70
43009;DHT22;28634;45.454;11.106;2022-10-26T00:31:56;22.90;57.80
43009;DHT22;28634;45.454;11.106;2022-10-26T00:34:40;22.80;57.80
43009;DHT22;28634;45.454;11.106;2022-10-26T00:37:07;22.80;57.70
43009;DHT22;28634;45.454;11.106;2022-10-26T00:39:39;22.80;57.90
43009;DHT22;28634;45.454;11.106;2022-10-26T00:42:12;22.80;58.00
43009;DHT22;28634;45.454;11.106;2022-10-26T00:45:18;22.80;57.80
43009;DHT22;28634;45.454;11.106;2022-10-26T00:47:58;22.80;57.90
43009;DHT22;28634;45.454;11.106;2022-10-26T00:50:35;22.80;58.00
43009;DHT22;28634;45.454;11.106;2022-10-26T00:53:22;22.80;58.10
43009;DHT22;28634;45.454;11.106;2022-10-26T00:55:53;22.80;58.10
43009;DHT22;28634;45.454;11.106;2022-10-26T00:58:25;22.80;58.20
43009;DHT22;28634;45.454;11.106;2022-10-26T01:00:53;22.80;58.10
43009;DHT22;28634;45.454;11.106;2022-10-26T01:03:30;22.80;58.00
43009;DHT22;28634;45.454;11.106;2022-10-26T01:06:03;22.70;58.00
43009;DHT22;28634;45.454;11.106;2022-10-26T01:08:34;22.70;58.10
43009;DHT22;28634;45.454;11.106;2022-10-26T01:11:04;22.70;57.90
43009;DHT22;28634;45.454;11.106;2022-10-26T01:13:41;22.80;58.00
43009;DHT22;28634;45.454;11.106;2022-10-26T01:24:43;22.70;58.00
43009;DHT22;28634;45.454;11.106;2022-10-26T01:27:25;22.70;57.90
43009;DHT22;28634;45.454;11.106;2022-10-26T01:33:07;22.70;58.10
43009;DHT22;28634;45.454;11.106;2022-10-26T01:44:45;22.70;58.20
43009;DHT22;28634;45.454;11.106;2022-10-26T01:47:17;22.70;58.20
43009;DHT22;28634;45.454;11.106;2022-10-26T01:49:55;22.60;58.20
43009;DHT22;28634;45.454;11.106;2022-10-26T01:52:27;22.70;58.20
43009;DHT22;28634;45.454;11.106;2022-10-26T01:55:36;22.70;58.20
43009;DHT22;28634;45.454;11.106;2022-10-26T02:07:34;22.60;58.00
43009;DHT22;28634;45.454;11.106;2022-10-26T02:10:36;22.60;57.80
43009;DHT22;28634;45.454;11.106;2022-10-26T02:21:49;22.50;57.80
43009;DHT22;28634;45.454;11.106;2022-10-26T02:24:22;22.50;57.90
43009;DHT22;28634;45.454;11.106;2022-10-26T02:26:52;22.50;58.00
43009;DHT22;28634;45.454;11.106;2022-10-26T02:29:26;22.50;58.00
43009;DHT22;28634;45.454;11.106;2022-10-26T02:32:00;22.40;58.10
43009;DHT22;28634;45.454;11.106;2022-10-26T02:34:29;22.50;58.10
43009;DHT22;28634;45.454;11.106;2022-10-26T02:37:04;22.40;58.00
43009;DHT22;28634;45.454;11.106;2022-10-26T02:39:44;22.40;58.10
43009;DHT22;28634;45.454;11.106;2022-10-26T02:42:15;22.40;58.00
43009;DHT22;28634;45.454;11.106;2022-10-26T02:44:56;22.40;58.00
43009;DHT22;28634;45.454;11.106;2022-10-26T02:47:29;22.40;58.00
43009;DHT22;28634;45.454;11.106;2022-10-26T02:50:01;22.40;58.00
43009;DHT22;28634;45.454;11.106;2022-10-26T02:52:44;22.40;57.90
43009;DHT22;28634;45.454;11.106;2022-10-26T02:55:29;22.40;58.00
43009;DHT22;28634;45.454;11.106;2022-10-26T02:58:05;22.40;57.80
43009;DHT22;28634;45.454;11.106;2022-10-26T03:00:35;22.40;57.80
43009;DHT22;28634;45.454;11.106;2022-10-26T03:03:03;22.30;57.80
43009;DHT22;28634;45.454;11.106;2022-10-26T03:05:41;22.30;57.80
43009;DHT22;28634;45.454;11.106;2022-10-26T03:08:10;22.30;57.90
43009;DHT22;28634;45.454;11.106;2022-10-26T03:10:43;22.30;57.80
43009;DHT22;28634;45.454;11.106;2022-10-26T03:13:13;22.30;57.70
43009;DHT22;28634;45.454;11.106;2022-10-26T03:15:45;22.30;57.70
43009;DHT22;28634;45.454;11.106;2022-10-26T03:18:25;22.30;57.40
43009;DHT22;28634;45.454;11.106;2022-10-26T03:20:57;22.20;57.70
43009;DHT22;28634;45.454;11.106;2022-10-26T03:23:27;22.20;57.50
43009;DHT22;28634;45.454;11.106;2022-10-26T03:25:58;22.20;57.50
43009;DHT22;28634;45.454;11.106;2022-10-26T03:28:27;22.20;57.50
43009;DHT22;28634;45.454;11.106;2022-10-26T03:31:03;22.20;57.50
43009;DHT22;28634;45.454;11.106;2022-10-26T03:33:32;22.20;57.50
43009;DHT22;28634;45.454;11.106;2022-10-26T03:36:01;22.20;57.50
43009;DHT22;28634;45.454;11.106;2022-10-26T03:38:28;22.20;57.60
43009;DHT22;28634;45.454;11.106;2022-10-26T03:40:58;22.20;57.60
43009;DHT22;28634;45.454;11.106;2022-10-26T03:43:37;22.20;57.60
43009;DHT22;28634;45.454;11.106;2022-10-26T03:46:24;22.20;57.60
43009;DHT22;28634;45.454;11.106;2022-10-26T03:48:53;22.20;57.50
43009;DHT22;28634;45.454;11.106;2022-10-26T03:51:22;22.20;57.50
43009;DHT22;28634;45.454;11.106;2022-10-26T03:53:49;22.20;57.60
43009;DHT22;28634;45.454;11.106;2022-10-26T03:56:19;22.20;57.60
43009;DHT22;28634;45.454;11.106;2022-10-26T03:58:47;22.20;57.50
43009;DHT22;28634;45.454;11.106;2022-10-26T04:01:34;22.20;57.50
43009;DHT22;28634;45.454;11.106;2022-10-26T04:04:03;22.20;57.60
43009;DHT22;28634;45.454;11.106;2022-10-26T04:06:30;22.20;57.60
43009;DHT22;28634;45.454;11.106;2022-10-26T04:09:00;22.20;57.70
43009;DHT22;28634;45.454;11.106;2022-10-26T04:11:31;22.20;57.80
43009;DHT22;28634;45.454;11.106;2022-10-26T04:14:00;22.20;57.90
43009;DHT22;28634;45.454;11.106;2022-10-26T04:16:33;22.20;58.00
43009;DHT22;28634;45.454;11.106;2022-10-26T04:19:05;22.20;58.00
43009;DHT22;28634;45.454;11.106;2022-10-26T04:21:35;22.20;58.10
43009;DHT22;28634;45.454;11.106;2022-10-26T04:24:12;22.20;58.20
43009;DHT22;28634;45.454;11.106;2022-10-26T04:26:42;22.20;58.20
43009;DHT22;28634;45.454;11.106;2022-10-26T04:29:14;22.20;58.30
43009;DHT22;28634;45.454;11.106;2022-10-26T04:31:41;22.20;58.40
43009;DHT22;28634;45.454;11.106;2022-10-26T04:34:09;22.20;58.50
43009;DHT22;28634;45.454;11.106;2022-10-26T04:36:39;22.20;58.50
43009;DHT22;28634;45.454;11.106;2022-10-26T04:39:09;22.20;58.60
43009;DHT22;28634;45.454;11.106;2022-10-26T04:41:37;22.20;58.60
43009;DHT22;28634;45.454;11.106;2022-10-26T04:44:10;22.20;58.70
43009;DHT22;28634;45.454;11.106;2022-10-26T04:46:46;22.20;58.80
43009;DHT22;28634;45.454;11.106;2022-10-26T04:49:14;22.20;58.90
43009;DHT22;28634;45.454;11.106;2022-10-26T04:51:47;22.20;59.00
43009;DHT22;28634;45.454;11.106;2022-10-26T04:54:22;22.20;59.10
43009;DHT22;28634;45.454;11.106;2022-10-26T04:56:50;22.20;59.10
43009;DHT22;28634;45.454;11.106;2022-10-26T04:59:22;22.20;59.30
43009;DHT22;28634;45.454;11.106;2022-10-26T05:01:52;22.20;59.40
43009;DHT22;28634;45.454;11.106;2022-10-26T05:04:19;22.20;59.50
43009;DHT22;28634;45.454;11.106;2022-10-26T05:06:48;22.20;59.70
43009;DHT22;28634;45.454;11.106;2022-10-26T05:09:15;22.20;59.80
43009;DHT22;28634;45.454;11.106;2022-10-26T05:11:43;22.20;59.90
43009;DHT22;28634;45.454;11.106;2022-10-26T05:14:14;22.20;60.00
43009;DHT22;28634;45.454;11.106;2022-10-26T05:16:43;22.10;60.20
43009;DHT22;28634;45.454;11.106;2022-10-26T05:19:13;22.10;60.30
43009;DHT22;28634;45.454;11.106;2022-10-26T05:21:43;22.20;60.50
43009;DHT22;28634;45.454;11.106;2022-10-26T05:24:10;22.20;60.50
43009;DHT22;28634;45.454;11.106;2022-10-26T05:26:40;22.20;60.60
43009;DHT22;28634;45.454;11.106;2022-10-26T05:29:15;22.20;60.70
43009;DHT22;28634;45.454;11.106;2022-10-26T05:31:44;22.20;60.70
43009;DHT22;28634;45.454;11.106;2022-10-26T05:34:14;22.20;60.80
43009;DHT22;28634;45.454;11.106;2022-10-26T05:36:46;22.20;60.90
43009;DHT22;28634;45.454;11.106;2022-10-26T05:39:13;22.20;60.90
43009;DHT22;28634;45.454;11.106;2022-10-26T05:41:43;22.20;60.90
43009;DHT22;28634;45.454;11.106;2022-10-26T05:44:10;22.20;61.00
43009;DHT22;28634;45.454;11.106;2022-10-26T05:46:37;22.20;61.10
43009;DHT22;28634;45.454;11.106;2022-10-26T05:49:05;22.10;61.00
43009;DHT22;28634;45.454;11.106;2022-10-26T05:51:33;22.10;61.00
43009;DHT22;28634;45.454;11.106;2022-10-26T05:54:03;22.10;60.50
43009;DHT22;28634;45.454;11.106;2022-10-26T05:56:35;22.00;60.70
43009;DHT22;28634;45.454;11.106;2022-10-26T05:59:11;22.10;61.00
43009;DHT22;28634;45.454;11.106;2022-10-26T06:04:42;22.10;61.30
43009;DHT22;28634;45.454;11.106;2022-10-26T06:07:17;22.10;61.30
43009;DHT22;28634;45.454;11.106;2022-10-26T06:09:46;22.10;61.30
43009;DHT22;28634;45.454;11.106;2022-10-26T06:12:14;22.10;61.30
43009;DHT22;28634;45.454;11.106;2022-10-26T06:14:45;22.00;61.40
43009;DHT22;28634;45.454;11.106;2022-10-26T06:26:15;22.00;61.60
43009;DHT22;28634;45.454;11.106;2022-10-26T06:29:05;22.00;61.60
43009;DHT22;28634;45.454;11.106;2022-10-26T06:31:36;22.00;61.50
43009;DHT22;28634;45.454;11.106;2022-10-26T06:34:04;22.00;61.50
43009;DHT22;28634;45.454;11.106;2022-10-26T06:36:31;22.00;61.40
43009;DHT22;28634;45.454;11.106;2022-10-26T06:39:02;22.00;61.30
43009;DHT22;28634;45.454;11.106;2022-10-26T06:41:31;22.00;61.40
43009;DHT22;28634;45.454;11.106;2022-10-26T06:43:59;22.00;61.20
43009;DHT22;28634;45.454;11.106;2022-10-26T06:46:37;22.10;61.10
43009;DHT22;28634;45.454;11.106;2022-10-26T06:51:58;22.00;61.10
43009;DHT22;28634;45.454;11.106;2022-10-26T06:54:46;22.10;61.10
43009;DHT22;28634;45.454;11.106;2022-10-26T06:57:21;22.10;61.00
43009;DHT22;28634;45.454;11.106;2022-10-26T07:00:20;22.10;61.10
43009;DHT22;28634;45.454;11.106;2022-10-26T07:02:48;22.10;61.20
43009;DHT22;28634;45.454;11.106;2022-10-26T07:05:16;22.00;61.30
43009;DHT22;28634;45.454;11.106;2022-10-26T07:07:46;22.10;61.30
43009;DHT22;28634;45.454;11.106;2022-10-26T07:10:15;22.10;61.40
43009;DHT22;28634;45.454;11.106;2022-10-26T07:12:46;22.10;61.40
43009;DHT22;28634;45.454;11.106;2022-10-26T07:15:13;22.20;61.40
43009;DHT22;28634;45.454;11.106;2022-10-26T07:17:46;22.20;61.40
43009;DHT22;28634;45.454;11.106;2022-10-26T07:20:19;22.20;61.40
43009;DHT22;28634;45.454;11.106;2022-10-26T07:22:53;22.20;61.40
43009;DHT22;28634;45.454;11.106;2022-10-26T07:25:22;22.20;61.40
43009;DHT22;28634;45.454;11.106;2022-10-26T07:27:59;22.20;61.40
43009;DHT22;28634;45.454;11.106;2022-10-26T07:30:29;22.20;61.60
43009;DHT22;28634;45.454;11.106;2022-10-26T07:33:01;22.20;61.70
43009;DHT22;28634;45.454;11.106;2022-10-26T07:35:28;22.20;61.90
43009;DHT22;28634;45.454;11.106;2022-10-26T07:37:57;22.20;61.80
43009;DHT22;28634;45.454;11.106;2022-10-26T07:40:25;22.20;61.90
43009;DHT22;28634;45.454;11.106;2022-10-26T07:42:56;22.20;61.90
43009;DHT22;28634;45.454;11.106;2022-10-26T07:45:24;22.20;61.90
43009;DHT22;28634;45.454;11.106;2022-10-26T07:47:51;22.20;62.10
43009;DHT22;28634;45.454;11.106;2022-10-26T07:50:22;22.20;62.10
43009;DHT22;28634;45.454;11.106;2022-10-26T07:52:51;22.20;62.00
43009;DHT22;28634;45.454;11.106;2022-10-26T07:55:19;22.20;61.90
43009;DHT22;28634;45.454;11.106;2022-10-26T07:57:46;22.20;61.80
43009;DHT22;28634;45.454;11.106;2022-10-26T08:00:19;22.20;61.70
43009;DHT22;28634;45.454;11.106;2022-10-26T08:02:46;22.20;61.80
43009;DHT22;28634;45.454;11.106;2022-10-26T08:05:13;22.20;61.80
43009;DHT22;28634;45.454;11.106;2022-10-26T08:07:44;22.20;61.90
43009;DHT22;28634;45.454;11.106;2022-10-26T08:10:14;22.10;62.30
43009;DHT22;28634;45.454;11.106;2022-10-26T08:12:48;22.10;62.10
43009;DHT22;28634;45.454;11.106;2022-10-26T08:15:15;22.10;62.30
43009;DHT22;28634;45.454;11.106;2022-10-26T08:17:46;22.10;62.20
43009;DHT22;28634;45.454;11.106;2022-10-26T08:20:15;22.10;62.10
43009;DHT22;28634;45.454;11.106;2022-10-26T08:22:42;22.10;62.10
43009;DHT22;28634;45.454;11.106;2022-10-26T08:25:09;22.20;61.90
43009;DHT22;28634;45.454;11.106;2022-10-26T08:27:40;22.20;61.80
43009;DHT22;28634;45.454;11.106;2022-10-26T08:30:11;22.20;61.60
43009;DHT22;28634;45.454;11.106;2022-10-26T08:32:40;22.20;61.40
43009;DHT22;28634;45.454;11.106;2022-10-26T08:35:11;22.20;61.40
43009;DHT22;28634;45.454;11.106;2022-10-26T08:37:40;22.20;61.50
43009;DHT22;28634;45.454;11.106;2022-10-26T08:40:10;22.20;61.50
43009;DHT22;28634;45.454;11.106;2022-10-26T08:42:48;22.20;61.50
43009;DHT22;28634;45.454;11.106;2022-10-26T08:45:25;22.20;61.40
43009;DHT22;28634;45.454;11.106;2022-10-26T08:48:05;22.20;61.40
43009;DHT22;28634;45.454;11.106;2022-10-26T08:50:50;22.20;61.40
43009;DHT22;28634;45.454;11.106;2022-10-26T08:53:28;22.20;61.40
43009;DHT22;28634;45.454;11.106;2022-10-26T08:56:05;22.20;61.40
43009;DHT22;28634;45.454;11.106;2022-10-26T08:58:42;22.20;61.50
43009;DHT22;28634;45.454;11.106;2022-10-26T09:01:12;22.20;61.50
43009;DHT22;28634;45.454;11.106;2022-10-26T09:03:42;22.20;61.40
43009;DHT22;28634;45.454;11.106;2022-10-26T09:14:37;22.20;61.20
43009;DHT22;28634;45.454;11.106;2022-10-26T09:19:48;22.20;61.30
43009;DHT22;28634;45.454;11.106;2022-10-26T09:22:32;22.20;61.20
43009;DHT22;28634;45.454;11.106;2022-10-26T09:25:17;22.20;61.30
43009;DHT22;28634;45.454;11.106;2022-10-26T09:27:56;22.20;61.30
43009;DHT22;28634;45.454;11.106;2022-10-26T09:30:27;22.20;61.20
43009;DHT22;28634;45.454;11.106;2022-10-26T09:33:19;22.20;61.20
43009;DHT22;28634;45.454;11.106;2022-10-26T09:36:01;22.20;61.20
43009;DHT22;28634;45.454;11.106;2022-10-26T09:38:40;22.20;61.10
43009;DHT22;28634;45.454;11.106;2022-10-26T09:41:39;22.30;61.10
43009;DHT22;28634;45.454;11.106;2022-10-26T09:44:21;22.20;61.00
43009;DHT22;28634;45.454;11.106;2022-10-26T09:47:28;22.30;61.00
43009;DHT22;28634;45.454;11.106;2022-10-26T09:52:38;22.30;60.90
43009;DHT22;28634;45.454;11.106;2022-10-26T09:55:10;22.30;60.90
43009;DHT22;28634;45.454;11.106;2022-10-26T09:57:46;22.30;60.70
43009;DHT22;28634;45.454;11.106;2022-10-26T10:00:21;22.30;60.80
43009;DHT22;28634;45.454;11.106;2022-10-26T10:02:56;22.30;60.60
43009;DHT22;28634;45.454;11.106;2022-10-26T10:05:33;22.30;60.60
43009;DHT22;28634;45.454;11.106;2022-10-26T10:08:19;22.30;60.80
43009;DHT22;28634;45.454;11.106;2022-10-26T10:13:22;22.30;60.70
43009;DHT22;28634;45.454;11.106;2022-10-26T10:16:10;22.30;60.70
43009;DHT22;28634;45.454;11.106;2022-10-26T10:18:39;22.40;60.60
43009;DHT22;28634;45.454;11.106;2022-10-26T10:21:09;22.40;60.60
43009;DHT22;28634;45.454;11.106;2022-10-26T10:23:49;22.40;60.30
43009;DHT22;28634;45.454;11.106;2022-10-26T10:26:20;22.40;60.60
43009;DHT22;28634;45.454;11.106;2022-10-26T10:28:58;22.40;60.50
43009;DHT22;28634;45.454;11.106;2022-10-26T10:31:31;22.40;60.60
43009;DHT22;28634;45.454;11.106;2022-10-26T10:33:59;22.40;60.60
43009;DHT22;28634;45.454;11.106;2022-10-26T10:36:28;22.40;60.50
43009;DHT22;28634;45.454;11.106;2022-10-26T10:38:56;22.40;60.60
43009;DHT22;28634;45.454;11.106;2022-10-26T10:41:32;22.40;60.60
43009;DHT22;28634;45.454;11.106;2022-10-26T10:44:24;22.50;60.60
43009;DHT22;28634;45.454;11.106;2022-10-26T10:47:13;22.50;60.40
43009;DHT22;28634;45.454;11.106;2022-10-26T10:49:50;22.60;60.40
43009;DHT22;28634;45.454;11.106;2022-10-26T10:52:29;22.60;60.20
43009;DHT22;28634;45.454;11.106;2022-10-26T10:55:16;22.70;60.20
43009;DHT22;28634;45.454;11.106;2022-10-26T10:58:17;22.70;60.10
43009;DHT22;28634;45.454;11.106;2022-10-26T11:00:47;22.70;60.20
43009;DHT22;28634;45.454;11.106;2022-10-26T11:06:26;22.80;60.20
43009;DHT22;28634;45.454;11.106;2022-10-26T11:09:10;22.80;60.10
43009;DHT22;28634;45.454;11.106;2022-10-26T11:11:49;22.80;59.90
43009;DHT22;28634;45.454;11.106;2022-10-26T11:14:32;22.90;60.00
43009;DHT22;28634;45.454;11.106;2022-10-26T11:17:23;22.90;59.90
43009;DHT22;28634;45.454;11.106;2022-10-26T11:19:56;23.00;60.00
43009;DHT22;28634;45.454;11.106;2022-10-26T11:25:24;23.00;60.00
43009;DHT22;28634;45.454;11.106;2022-10-26T11:31:35;23.10;59.80
43009;DHT22;28634;45.454;11.106;2022-10-26T11:36:47;23.20;59.60
43009;DHT22;28634;45.454;11.106;2022-10-26T11:39:30;23.20;59.30
43009;DHT22;28634;45.454;11.106;2022-10-26T11:42:23;23.20;59.30
43009;DHT22;28634;45.454;11.106;2022-10-26T11:47:50;23.20;59.50
43009;DHT22;28634;45.454;11.106;2022-10-26T11:50:26;23.30;59.10
43009;DHT22;28634;45.454;11.106;2022-10-26T11:55:30;23.30;58.90
43009;DHT22;28634;45.454;11.106;2022-10-26T11:57:58;23.30;58.00
43009;DHT22;28634;45.454;11.106;2022-10-26T12:00:29;23.30;58.30
43009;DHT22;28634;45.454;11.106;2022-10-26T12:03:09;23.30;58.00
43009;DHT22;28634;45.454;11.106;2022-10-26T12:05:41;23.30;57.90
43009;DHT22;28634;45.454;11.106;2022-10-26T12:08:35;23.40;58.00
43009;DHT22;28634;45.454;11.106;2022-10-26T12:14:29;23.40;57.90
43009;DHT22;28634;45.454;11.106;2022-10-26T12:17:02;23.40;58.10
43009;DHT22;28634;45.454;11.106;2022-10-26T12:22:17;23.40;57.80
43009;DHT22;28634;45.454;11.106;2022-10-26T12:24:46;23.40;57.80
43009;DHT22;28634;45.454;11.106;2022-10-26T12:27:54;23.50;57.60
43009;DHT22;28634;45.454;11.106;2022-10-26T12:30:26;23.50;57.70
43009;DHT22;28634;45.454;11.106;2022-10-26T12:33:01;23.40;57.80
43009;DHT22;28634;45.454;11.106;2022-10-26T12:35:41;23.50;57.70
43009;DHT22;28634;45.454;11.106;2022-10-26T12:41:07;23.50;57.70
43009;DHT22;28634;45.454;11.106;2022-10-26T12:43:39;23.50;57.90
43009;DHT22;28634;45.454;11.106;2022-10-26T12:48:44;23.50;58.00
43009;DHT22;28634;45.454;11.106;2022-10-26T12:56:43;23.60;57.70
43009;DHT22;28634;45.454;11.106;2022-10-26T13:07:32;23.60;57.30
43009;DHT22;28634;45.454;11.106;2022-10-26T13:12:57;23.50;57.70
43009;DHT22;28634;45.454;11.106;2022-10-26T13:15:36;23.60;57.80
43009;DHT22;28634;45.454;11.106;2022-10-26T13:18:15;23.60;57.90
43009;DHT22;28634;45.454;11.106;2022-10-26T13:23:39;23.60;57.60
43009;DHT22;28634;45.454;11.106;2022-10-26T13:26:14;23.60;57.80
43009;DHT22;28634;45.454;11.106;2022-10-26T13:28:53;23.70;57.80
43009;DHT22;28634;45.454;11.106;2022-10-26T13:37:04;23.70;57.90
43009;DHT22;28634;45.454;11.106;2022-10-26T13:39:42;23.70;58.30
43009;DHT22;28634;45.454;11.106;2022-10-26T13:42:24;23.70;58.80
43009;DHT22;28634;45.454;11.106;2022-10-26T13:45:14;23.70;58.70
43009;DHT22;28634;45.454;11.106;2022-10-26T13:47:44;23.70;58.60
43009;DHT22;28634;45.454;11.106;2022-10-26T13:50:19;23.70;58.70
43009;DHT22;28634;45.454;11.106;2022-10-26T13:52:50;23.70;58.70
43009;DHT22;28634;45.454;11.106;2022-10-26T13:55:35;23.80;58.20
43009;DHT22;28634;45.454;11.106;2022-10-26T14:03:36;23.80;59.20
43009;DHT22;28634;45.454;11.106;2022-10-26T14:06:13;23.70;59.00
43009;DHT22;28634;45.454;11.106;2022-10-26T14:08:43;23.70;58.60
43009;DHT22;28634;45.454;11.106;2022-10-26T14:11:14;23.70;58.50
43009;DHT22;28634;45.454;11.106;2022-10-26T14:13:47;23.70;58.30
43009;DHT22;28634;45.454;11.106;2022-10-26T14:16:17;23.70;58.40
43009;DHT22;28634;45.454;11.106;2022-10-26T14:18:50;23.70;58.10
43009;DHT22;28634;45.454;11.106;2022-10-26T14:21:23;23.70;57.50
43009;DHT22;28634;45.454;11.106;2022-10-26T14:23:56;23.70;57.80
43009;DHT22;28634;45.454;11.106;2022-10-26T14:26:29;23.70;57.90
43009;DHT22;28634;45.454;11.106;2022-10-26T14:29:00;23.70;58.10
43009;DHT22;28634;45.454;11.106;2022-10-26T14:31:32;23.80;57.90
43009;DHT22;28634;45.454;11.106;2022-10-26T14:34:02;23.80;57.90
43009;DHT22;28634;45.454;11.106;2022-10-26T14:39:26;23.80;58.20
43009;DHT22;28634;45.454;11.106;2022-10-26T14:41:56;23.80;57.70
43009;DHT22;28634;45.454;11.106;2022-10-26T14:44:25;23.80;57.80
43009;DHT22;28634;45.454;11.106;2022-10-26T14:46:55;23.90;57.60
43009;DHT22;28634;45.454;11.106;2022-10-26T14:49:25;23.80;58.10
43009;DHT22;28634;45.454;11.106;2022-10-26T14:51:57;23.80;57.70
43009;DHT22;28634;45.454;11.106;2022-10-26T14:54:27;23.80;58.10
43009;DHT22;28634;45.454;11.106;2022-10-26T14:56:55;23.80;58.00
43009;DHT22;28634;45.454;11.106;2022-10-26T14:59:28;23.80;58.10
43009;DHT22;28634;45.454;11.106;2022-10-26T15:02:11;23.70;58.50
43009;DHT22;28634;45.454;11.106;2022-10-26T15:05:15;23.80;58.50
43009;DHT22;28634;45.454;11.106;2022-10-26T15:07:46;23.80;58.20
43009;DHT22;28634;45.454;11.106;2022-10-26T15:13:40;23.80;58.30
43009;DHT22;28634;45.454;11.106;2022-10-26T15:16:17;23.80;58.20
43009;DHT22;28634;45.454;11.106;2022-10-26T15:18:47;23.80;57.90
43009;DHT22;28634;45.454;11.106;2022-10-26T15:21:31;23.80;57.50
43009;DHT22;28634;45.454;11.106;2022-10-26T15:24:00;23.80;57.60
43009;DHT22;28634;45.454;11.106;2022-10-26T15:26:28;23.80;57.80
43009;DHT22;28634;45.454;11.106;2022-10-26T15:28:56;23.70;57.70
43009;DHT22;28634;45.454;11.106;2022-10-26T15:31:26;23.70;57.90
43009;DHT22;28634;45.454;11.106;2022-10-26T15:34:09;23.70;58.00
43009;DHT22;28634;45.454;11.106;2022-10-26T15:36:38;23.70;58.30
43009;DHT22;28634;45.454;11.106;2022-10-26T15:39:09;23.70;58.30
43009;DHT22;28634;45.454;11.106;2022-10-26T15:41:43;23.70;58.50
43009;DHT22;28634;45.454;11.106;2022-10-26T15:44:16;23.60;58.50
43009;DHT22;28634;45.454;11.106;2022-10-26T15:46:46;23.60;58.70
43009;DHT22;28634;45.454;11.106;2022-10-26T15:49:18;23.60;58.90
43009;DHT22;28634;45.454;11.106;2022-10-26T15:51:47;23.60;59.00
43009;DHT22;28634;45.454;11.106;2022-10-26T15:54:14;23.50;59.00
43009;DHT22;28634;45.454;11.106;2022-10-26T15:56:42;23.50;59.20
43009;DHT22;28634;45.454;11.106;2022-10-26T15:59:16;23.40;59.40
43009;DHT22;28634;45.454;11.106;2022-10-26T16:01:46;23.40;59.50
43009;DHT22;28634;45.454;11.106;2022-10-26T16:04:13;23.30;59.60
43009;DHT22;28634;45.454;11.106;2022-10-26T16:06:41;23.30;59.70
43009;DHT22;28634;45.454;11.106;2022-10-26T16:09:14;23.30;59.70
43009;DHT22;28634;45.454;11.106;2022-10-26T16:11:44;23.30;60.00
43009;DHT22;28634;45.454;11.106;2022-10-26T16:14:12;23.30;59.90
43009;DHT22;28634;45.454;11.106;2022-10-26T16:16:40;23.30;60.00
43009;DHT22;28634;45.454;11.106;2022-10-26T16:19:10;23.40;59.90
43009;DHT22;28634;45.454;11.106;2022-10-26T16:21:57;23.30;59.90
43009;DHT22;28634;45.454;11.106;2022-10-26T16:24:28;23.40;60.20
43009;DHT22;28634;45.454;11.106;2022-10-26T16:26:56;23.30;60.00
43009;DHT22;28634;45.454;11.106;2022-10-26T16:29:23;23.30;60.20
43009;DHT22;28634;45.454;11.106;2022-10-26T16:31:51;23.30;60.30
43009;DHT22;28634;45.454;11.106;2022-10-26T16:34:18;23.30;60.20
43009;DHT22;28634;45.454;11.106;2022-10-26T16:36:45;23.30;60.10
43009;DHT22;28634;45.454;11.106;2022-10-26T16:39:15;23.30;60.20
43009;DHT22;28634;45.454;11.106;2022-10-26T16:41:42;23.20;60.20
43009;DHT22;28634;45.454;11.106;2022-10-26T16:44:11;23.20;60.30
43009;DHT22;28634;45.454;11.106;2022-10-26T16:46:39;23.20;60.30
43009;DHT22;28634;45.454;11.106;2022-10-26T16:49:06;23.20;60.40
43009;DHT22;28634;45.454;11.106;2022-10-26T16:51:33;23.20;60.20
43009;DHT22;28634;45.454;11.106;2022-10-26T16:54:00;23.20;60.10
43009;DHT22;28634;45.454;11.106;2022-10-26T16:56:29;23.20;60.20
43009;DHT22;28634;45.454;11.106;2022-10-26T16:58:56;23.20;60.10
43009;DHT22;28634;45.454;11.106;2022-10-26T17:01:23;23.20;60.20
43009;DHT22;28634;45.454;11.106;2022-10-26T17:03:51;23.20;60.20
43009;DHT22;28634;45.454;11.106;2022-10-26T17:06:19;23.20;60.10
43009;DHT22;28634;45.454;11.106;2022-10-26T17:08:46;23.30;59.90
43009;DHT22;28634;45.454;11.106;2022-10-26T17:11:17;23.30;59.60
43009;DHT22;28634;45.454;11.106;2022-10-26T17:13:46;23.40;59.40
43009;DHT22;28634;45.454;11.106;2022-10-26T17:16:16;23.50;59.20
43009;DHT22;28634;45.454;11.106;2022-10-26T17:18:44;23.60;59.10
43009;DHT22;28634;45.454;11.106;2022-10-26T17:21:16;23.60;59.00
43009;DHT22;28634;45.454;11.106;2022-10-26T17:23:44;23.60;58.90
43009;DHT22;28634;45.454;11.106;2022-10-26T17:26:14;23.60;58.90
43009;DHT22;28634;45.454;11.106;2022-10-26T17:28:42;23.60;58.80
43009;DHT22;28634;45.454;11.106;2022-10-26T17:31:12;23.70;58.80
43009;DHT22;28634;45.454;11.106;2022-10-26T17:33:43;23.70;58.70
43009;DHT22;28634;45.454;11.106;2022-10-26T17:36:12;23.70;58.60
43009;DHT22;28634;45.454;11.106;2022-10-26T17:38:40;23.70;58.60
43009;DHT22;28634;45.454;11.106;2022-10-26T17:41:15;23.70;58.60
43009;DHT22;28634;45.454;11.106;2022-10-26T17:43:45;23.70;58.60
43009;DHT22;28634;45.454;11.106;2022-10-26T17:46:17;23.70;58.40
43009;DHT22;28634;45.454;11.106;2022-10-26T17:48:45;23.70;58.50
43009;DHT22;28634;45.454;11.106;2022-10-26T17:51:15;23.70;58.50
43009;DHT22;28634;45.454;11.106;2022-10-26T17:53:46;23.70;58.50
43009;DHT22;28634;45.454;11.106;2022-10-26T17:56:17;23.70;58.40
43009;DHT22;28634;45.454;11.106;2022-10-26T17:58:49;23.70;58.40
43009;DHT22;28634;45.454;11.106;2022-10-26T18:01:21;23.80;58.30
43009;DHT22;28634;45.454;11.106;2022-10-26T18:03:49;23.80;58.40
43009;DHT22;28634;45.454;11.106;2022-10-26T18:06:20;23.80;58.20
43009;DHT22;28634;45.454;11.106;2022-10-26T18:08:47;23.80;58.30